createdAt,value
2023-01-20T00:01:31.563Z,11.02
2023-01-20T00:03:58.695Z,10.77
2023-01-20T00:06:30.121Z,10.27
2023-01-20T00:08:59.562Z,9.57
2023-01-20T00:11:27.391Z,9.50
2023-01-20T00:13:59.078Z,10.32
2023-01-20T00:16:40.835Z,9.73
2023-01-20T00:19:07.804Z,9.65
2023-01-20T00:21:35.132Z,10.00
2023-01-20T00:24:01.808Z,10.23
2023-01-20T00:26:28.391Z,12.23
2023-01-20T00:28:57.663Z,11.30
2023-01-20T00:31:29.857Z,12.65
2023-01-20T00:33:58.902Z,12.65
2023-01-20T00:36:26.916Z,12.02
2023-01-20T00:38:53.912Z,11.73
2023-01-20T00:41:20.525Z,12.60
2023-01-20T00:43:47.320Z,11.70
2023-01-20T00:46:14.891Z,12.95
2023-01-20T00:48:41.948Z,12.18
2023-01-20T00:51:09.567Z,13.05
2023-01-20T00:53:36.627Z,12.65
2023-01-20T00:56:03.415Z,11.98
2023-01-20T00:58:30.023Z,12.13
2023-01-20T01:00:58.742Z,12.38
2023-01-20T01:03:28.011Z,12.25
2023-01-20T01:05:54.744Z,11.88
2023-01-20T01:08:21.281Z,15.27
2023-01-20T01:10:47.842Z,12.35
2023-01-20T01:13:14.421Z,12.40
2023-01-20T01:15:48.350Z,12.20
2023-01-20T01:18:15.028Z,12.50
2023-01-20T01:20:41.593Z,13.50
2023-01-20T01:23:08.155Z,12.82
2023-01-20T01:25:34.734Z,12.15
2023-01-20T01:28:01.357Z,11.75
2023-01-20T01:30:27.969Z,12.40
2023-01-20T01:32:54.591Z,12.93
2023-01-20T01:35:21.133Z,13.23
2023-01-20T01:37:47.712Z,12.55
2023-01-20T01:40:14.439Z,12.40
2023-01-20T01:42:42.883Z,12.80
2023-01-20T01:45:12.778Z,12.40
2023-01-20T01:47:44.744Z,11.90
2023-01-20T01:50:18.011Z,12.73
2023-01-20T01:52:47.636Z,12.55
2023-01-20T01:55:19.087Z,12.73
2023-01-20T01:57:47.212Z,12.50
2023-01-20T02:00:13.992Z,12.30
2023-01-20T02:02:43.588Z,11.95
2023-01-20T02:05:12.248Z,12.10
2023-01-20T02:07:39.548Z,12.23
2023-01-20T02:10:06.908Z,12.02
2023-01-20T02:12:33.591Z,11.57
2023-01-20T02:15:03.214Z,11.93
2023-01-20T02:17:41.988Z,12.50
2023-01-20T02:20:30.180Z,13.15
2023-01-20T02:23:18.352Z,12.00
2023-01-20T02:25:56.808Z,11.30
2023-01-20T02:29:01.614Z,12.68
2023-01-20T02:31:46.644Z,11.85
2023-01-20T02:34:19.529Z,11.32
2023-01-20T02:36:55.697Z,10.73
2023-01-20T02:39:36.495Z,11.07
2023-01-20T02:42:05.749Z,11.88
2023-01-20T02:44:52.041Z,11.30
2023-01-20T02:47:21.288Z,11.98
2023-01-20T02:50:16.144Z,11.70
2023-01-20T02:52:46.635Z,12.40
2023-01-20T02:55:19.321Z,11.75
2023-01-20T02:57:50.572Z,12.38
2023-01-20T03:00:29.303Z,12.15
2023-01-20T03:03:00.246Z,10.88
2023-01-20T03:05:31.840Z,11.00
2023-01-20T03:08:02.546Z,12.40
2023-01-20T03:10:32.393Z,10.10
2023-01-20T03:13:13.824Z,10.98
2023-01-20T03:16:07.919Z,11.00
2023-01-20T03:18:36.012Z,11.27
2023-01-20T03:21:05.181Z,10.60
2023-01-20T03:23:35.299Z,11.02
2023-01-20T03:26:08.980Z,11.05
2023-01-20T03:28:35.734Z,10.18
2023-01-20T03:31:11.645Z,11.55
2023-01-20T03:33:38.724Z,10.93
2023-01-20T03:36:05.902Z,11.10
2023-01-20T03:38:32.443Z,10.82
2023-01-20T03:41:11.271Z,10.85
2023-01-20T03:43:52.743Z,11.05
2023-01-20T03:46:44.945Z,7.45
2023-01-20T03:51:43.853Z,10.40
2023-01-20T03:54:18.338Z,10.88
2023-01-20T03:56:56.673Z,11.15
2023-01-20T03:59:23.857Z,11.20
2023-01-20T04:01:52.652Z,10.70
2023-01-20T04:04:20.216Z,12.52
2023-01-20T04:06:49.860Z,12.00
2023-01-20T04:09:23.548Z,12.50
2023-01-20T04:11:50.941Z,11.70
2023-01-20T04:14:17.649Z,11.80
2023-01-20T04:16:51.182Z,11.27
2023-01-20T04:19:17.758Z,11.82
2023-01-20T04:21:51.539Z,12.48
2023-01-20T04:24:33.040Z,12.23
2023-01-20T04:26:59.581Z,13.02
2023-01-20T04:29:26.204Z,13.65
2023-01-20T04:31:59.420Z,12.43
2023-01-20T04:34:26.448Z,12.93
2023-01-20T04:36:53.117Z,12.48
2023-01-20T04:39:20.075Z,12.02
2023-01-20T04:41:47.662Z,11.63
2023-01-20T04:44:14.397Z,13.23
2023-01-20T04:46:41.128Z,13.05
2023-01-20T04:49:07.995Z,12.27
2023-01-20T04:51:34.636Z,12.25
2023-01-20T04:54:01.264Z,11.88
2023-01-20T04:56:27.900Z,12.32
2023-01-20T04:58:54.505Z,13.68
2023-01-20T05:01:21.137Z,12.88
2023-01-20T05:03:47.811Z,13.65
2023-01-20T05:06:14.911Z,13.30
2023-01-20T05:08:41.529Z,13.23
2023-01-20T05:11:08.281Z,13.55
2023-01-20T05:13:39.046Z,14.02
2023-01-20T05:16:10.024Z,14.07
2023-01-20T05:18:36.997Z,13.70
2023-01-20T05:21:05.232Z,14.65
2023-01-20T05:23:32.008Z,13.15
2023-01-20T05:25:58.682Z,13.30
2023-01-20T05:28:25.362Z,14.38
2023-01-20T05:30:52.205Z,13.65
2023-01-20T05:33:18.961Z,14.80
2023-01-20T05:35:45.591Z,14.45
2023-01-20T05:38:12.273Z,13.60
2023-01-20T05:40:38.907Z,14.63
2023-01-20T05:43:05.472Z,14.50
2023-01-20T05:45:32.526Z,14.65
2023-01-20T05:48:00.269Z,14.25
2023-01-20T05:50:28.396Z,14.10
2023-01-20T05:52:55.034Z,13.63
2023-01-20T05:55:21.815Z,13.30
2023-01-20T05:57:48.374Z,8.45
2023-01-20T06:00:15.297Z,12.35
2023-01-20T06:02:42.077Z,12.27
2023-01-20T06:05:08.914Z,9.98
2023-01-20T06:07:35.540Z,11.77
2023-01-20T06:10:02.610Z,11.32
2023-01-20T06:12:29.210Z,11.20
2023-01-20T06:14:55.742Z,12.35
2023-01-20T06:17:22.293Z,11.80
2023-01-20T06:19:49.043Z,12.50
2023-01-20T06:22:15.964Z,12.45
2023-01-20T06:24:42.513Z,13.13
2023-01-20T06:27:10.058Z,13.52
2023-01-20T06:29:36.970Z,14.40
2023-01-20T06:32:04.224Z,14.63
2023-01-20T06:34:30.916Z,14.82
2023-01-20T06:36:58.315Z,14.88
2023-01-20T06:39:24.922Z,14.88
2023-01-20T06:41:51.517Z,15.40
2023-01-20T06:44:18.150Z,14.57
2023-01-20T06:46:46.749Z,15.05
2023-01-20T06:49:14.786Z,15.60
2023-01-20T06:51:41.895Z,15.60
2023-01-20T06:54:08.660Z,14.13
2023-01-20T06:56:35.562Z,15.15
2023-01-20T06:59:02.263Z,14.57
2023-01-20T07:01:31.098Z,13.45
2023-01-20T07:03:57.849Z,15.60
2023-01-20T07:06:39.607Z,15.27
2023-01-20T07:09:12.467Z,15.55
2023-01-20T07:11:39.843Z,16.15
2023-01-20T07:14:07.009Z,16.08
2023-01-20T07:16:34.882Z,15.48
2023-01-20T07:19:01.568Z,15.60
2023-01-20T07:21:28.232Z,17.10
2023-01-20T07:23:54.974Z,16.48
2023-01-20T07:26:24.388Z,17.00
2023-01-20T07:28:52.123Z,15.90
2023-01-20T07:31:21.715Z,15.73
2023-01-20T07:33:49.192Z,15.50
2023-01-20T07:36:16.852Z,15.88
2023-01-20T07:38:46.395Z,15.30
2023-01-20T07:41:16.399Z,14.70
2023-01-20T07:43:46.345Z,15.20
2023-01-20T07:46:14.085Z,14.60
2023-01-20T07:48:41.219Z,13.93
2023-01-20T07:51:10.303Z,14.75
2023-01-20T07:53:48.165Z,14.20
2023-01-20T07:56:16.277Z,14.40
2023-01-20T07:58:45.358Z,14.38
2023-01-20T08:01:13.774Z,13.05
2023-01-20T08:03:40.453Z,12.30
2023-01-20T08:06:09.674Z,13.10
2023-01-20T08:08:36.539Z,11.73
2023-01-20T08:11:04.147Z,12.27
2023-01-20T08:13:32.091Z,10.60
2023-01-20T08:16:05.012Z,11.43
2023-01-20T08:18:32.774Z,12.32
2023-01-20T08:20:59.983Z,12.23
2023-01-20T08:23:26.628Z,12.30
2023-01-20T08:26:02.122Z,11.52
2023-01-20T08:28:29.749Z,10.60
2023-01-20T08:31:04.846Z,10.85
2023-01-20T08:33:31.610Z,10.05
2023-01-20T08:36:06.071Z,10.52
2023-01-20T08:38:32.683Z,10.15
2023-01-20T08:40:59.350Z,10.13
2023-01-20T08:43:25.905Z,10.20
2023-01-20T08:45:59.963Z,11.30
2023-01-20T08:48:26.673Z,10.68
2023-01-20T08:50:53.239Z,10.27
2023-01-20T08:53:20.097Z,9.10
2023-01-20T08:55:56.003Z,8.40
2023-01-20T08:58:25.219Z,8.07
2023-01-20T09:00:52.399Z,7.90
2023-01-20T09:03:19.059Z,7.70
2023-01-20T09:05:46.182Z,6.70
2023-01-20T09:08:13.127Z,7.75
2023-01-20T09:10:39.782Z,7.20
2023-01-20T09:13:06.908Z,6.72
2023-01-20T09:15:33.726Z,6.72
2023-01-20T09:18:00.421Z,7.45
2023-01-20T09:20:28.926Z,6.20
2023-01-20T09:22:55.653Z,6.57
2023-01-20T09:25:22.480Z,6.40
2023-01-20T09:27:49.093Z,6.30
2023-01-20T09:30:15.928Z,7.18
2023-01-20T09:32:42.519Z,6.60
2023-01-20T09:35:09.497Z,6.93
2023-01-20T09:37:54.898Z,7.22
2023-01-20T09:40:53.490Z,6.68
2023-01-20T09:43:51.702Z,7.55
2023-01-20T09:46:38.714Z,7.90
2023-01-20T09:49:29.986Z,7.15
2023-01-20T09:52:45.660Z,7.27
2023-01-20T09:55:42.802Z,7.63
2023-01-20T09:58:11.277Z,8.30
2023-01-20T10:00:41.076Z,9.13
2023-01-20T10:03:37.179Z,9.40
2023-01-20T10:06:26.395Z,8.23
2023-01-20T10:09:06.764Z,10.20
2023-01-20T10:11:39.099Z,8.80
2023-01-20T10:14:29.753Z,10.07
2023-01-20T10:17:05.298Z,9.48
2023-01-20T10:19:42.405Z,10.00
2023-01-20T10:22:20.749Z,11.00
2023-01-20T10:24:56.141Z,9.73
2023-01-20T10:27:26.697Z,10.27
2023-01-20T10:30:02.922Z,9.98
2023-01-20T10:32:36.756Z,9.65
2023-01-20T10:35:25.869Z,9.98
2023-01-20T10:37:53.544Z,11.35
2023-01-20T10:40:44.839Z,10.20
2023-01-20T10:43:16.609Z,10.90
2023-01-20T10:45:58.819Z,10.75
2023-01-20T10:48:37.762Z,9.73
2023-01-20T10:51:19.697Z,9.70
2023-01-20T10:54:10.809Z,9.75
2023-01-20T10:56:45.868Z,10.95
2023-01-20T10:59:17.975Z,9.85
2023-01-20T11:01:56.249Z,9.85
2023-01-20T11:04:26.264Z,9.63
2023-01-20T11:06:56.800Z,9.43
2023-01-20T11:09:34.338Z,9.32
2023-01-20T11:12:06.663Z,8.82
2023-01-20T11:14:33.998Z,8.02
2023-01-20T11:17:04.750Z,8.05
2023-01-20T11:19:54.443Z,8.60
2023-01-20T11:22:28.050Z,8.48
2023-01-20T11:24:56.745Z,7.20
2023-01-20T11:27:26.912Z,7.65
2023-01-20T11:30:00.220Z,7.38
2023-01-20T11:32:34.960Z,7.68
2023-01-20T11:35:18.215Z,7.30
2023-01-20T11:37:44.817Z,6.90
2023-01-20T11:40:26.050Z,7.70
2023-01-20T11:42:53.915Z,8.10
2023-01-20T11:45:34.853Z,8.25
2023-01-20T11:48:17.943Z,7.57
2023-01-20T11:50:57.475Z,7.75
2023-01-20T11:53:27.446Z,7.80
2023-01-20T11:56:15.438Z,7.78
2023-01-20T11:58:56.019Z,8.07
2023-01-20T12:01:28.632Z,7.85
2023-01-20T12:04:18.570Z,8.38
2023-01-20T12:07:23.680Z,8.27
2023-01-20T12:09:54.464Z,7.32
2023-01-20T12:12:32.273Z,7.10
2023-01-20T12:15:23.007Z,8.00
2023-01-20T12:17:58.903Z,7.72
2023-01-20T12:20:42.380Z,6.85
2023-01-20T12:23:48.676Z,7.78
2023-01-20T12:26:18.147Z,7.28
2023-01-20T12:29:07.404Z,8.15
2023-01-20T12:31:34.303Z,7.65
2023-01-20T12:34:05.189Z,7.93
2023-01-20T12:36:46.852Z,8.80
2023-01-20T12:39:31.883Z,8.60
2023-01-20T12:42:10.632Z,7.95
2023-01-20T12:44:45.964Z,9.35
2023-01-20T12:47:21.508Z,8.88
2023-01-20T12:50:11.366Z,8.82
2023-01-20T12:52:52.942Z,9.25
2023-01-20T12:55:37.916Z,9.02
2023-01-20T12:58:19.439Z,9.70
2023-01-20T13:00:55.140Z,9.40
2023-01-20T13:03:36.751Z,8.73
2023-01-20T13:06:19.251Z,9.10
2023-01-20T13:08:45.756Z,8.88
2023-01-20T13:11:17.251Z,8.13
2023-01-20T13:13:57.639Z,9.23
2023-01-20T13:16:41.703Z,8.73
2023-01-20T13:19:29.083Z,9.75
2023-01-20T13:22:07.313Z,8.55
2023-01-20T13:24:34.906Z,7.80
2023-01-20T13:27:02.668Z,8.52
2023-01-20T13:29:37.896Z,8.70
2023-01-20T13:32:26.703Z,7.53
2023-01-20T13:34:53.377Z,7.63
2023-01-20T13:37:32.400Z,7.75
2023-01-20T13:40:00.493Z,7.80
2023-01-20T13:42:39.376Z,7.50
2023-01-20T13:45:11.653Z,7.80
2023-01-20T13:48:05.797Z,8.20
2023-01-20T13:50:38.352Z,7.90
2023-01-20T13:53:04.872Z,7.50
2023-01-20T13:55:51.554Z,7.07
2023-01-20T13:58:34.886Z,7.50
2023-01-20T14:01:04.817Z,7.20
2023-01-20T14:03:38.844Z,7.20
2023-01-20T14:06:07.171Z,7.00
2023-01-20T14:08:45.808Z,7.45
2023-01-20T14:11:18.097Z,7.13
2023-01-20T14:13:59.637Z,7.82
2023-01-20T14:16:36.708Z,7.82
2023-01-20T14:19:34.173Z,7.38
2023-01-20T14:22:18.806Z,7.57
2023-01-20T14:24:48.161Z,8.23
2023-01-20T14:27:19.726Z,7.57
2023-01-20T14:29:48.236Z,7.78
2023-01-20T14:32:26.717Z,7.80
2023-01-20T14:34:53.789Z,7.53
2023-01-20T14:37:24.652Z,7.78
2023-01-20T14:39:51.932Z,8.48
2023-01-20T14:42:21.665Z,7.78
2023-01-20T14:44:50.284Z,8.57
2023-01-20T14:47:18.044Z,7.90
2023-01-20T14:49:48.050Z,7.80
2023-01-20T14:52:24.776Z,6.78
2023-01-20T14:54:51.430Z,7.38
2023-01-20T14:57:17.959Z,7.60
2023-01-20T14:59:44.828Z,7.15
2023-01-20T15:02:21.693Z,7.18
2023-01-20T15:04:48.371Z,7.45
2023-01-20T15:07:20.781Z,7.28
2023-01-20T15:10:14.335Z,7.03
2023-01-20T15:12:47.077Z,6.90
2023-01-20T15:15:22.637Z,7.30
2023-01-20T15:18:10.948Z,6.57
2023-01-20T15:20:40.840Z,6.60
2023-01-20T15:23:32.113Z,6.63
2023-01-20T15:26:10.035Z,7.50
2023-01-20T15:28:42.958Z,6.47
2023-01-20T15:31:16.336Z,7.03
2023-01-20T15:33:43.920Z,7.15
2023-01-20T15:36:21.726Z,6.97
2023-01-20T15:38:48.468Z,6.32
2023-01-20T15:41:15.064Z,6.78
2023-01-20T15:43:42.500Z,6.47
2023-01-20T15:46:13.484Z,6.45
2023-01-20T15:48:40.680Z,6.47
2023-01-20T15:51:11.974Z,6.90
2023-01-20T15:53:38.550Z,6.70
2023-01-20T15:56:05.500Z,6.90
2023-01-20T15:58:35.920Z,6.53
2023-01-20T16:01:02.528Z,6.38
2023-01-20T16:03:29.155Z,6.32
2023-01-20T16:05:56.144Z,6.80
2023-01-20T16:08:26.821Z,6.65
2023-01-20T16:10:53.495Z,6.28
2023-01-20T16:13:20.039Z,7.38
2023-01-20T16:15:46.576Z,6.40
2023-01-20T16:18:18.084Z,7.50
2023-01-20T16:20:46.288Z,7.82
2023-01-20T16:23:13.670Z,7.40
2023-01-20T16:25:40.712Z,8.70
2023-01-20T16:28:21.393Z,7.82
2023-01-20T16:30:48.922Z,7.85
2023-01-20T16:33:19.392Z,7.70
2023-01-20T16:35:46.360Z,8.65
2023-01-20T16:38:15.711Z,9.23
2023-01-20T16:40:55.502Z,10.05
2023-01-20T16:43:22.418Z,10.07
2023-01-20T16:45:54.474Z,9.38
2023-01-20T16:48:22.597Z,9.98
2023-01-20T16:50:50.214Z,10.27
2023-01-20T16:53:17.776Z,11.27
2023-01-20T16:55:46.199Z,11.05
2023-01-20T16:58:14.094Z,11.27
2023-01-20T17:00:41.054Z,11.02
2023-01-20T17:03:08.013Z,12.57
2023-01-20T17:05:35.084Z,12.70
2023-01-20T17:08:02.443Z,12.77
2023-01-20T17:10:32.468Z,14.10
2023-01-20T17:12:59.310Z,14.52
2023-01-20T17:15:26.692Z,15.18
2023-01-20T17:17:56.627Z,15.35
2023-01-20T17:20:25.085Z,12.85
2023-01-20T17:22:53.289Z,15.95
2023-01-20T17:25:19.944Z,15.15
2023-01-20T17:27:46.513Z,15.05
2023-01-20T17:30:14.042Z,14.90
2023-01-20T17:32:40.678Z,13.40
2023-01-20T17:35:07.435Z,13.40
2023-01-20T17:37:33.997Z,12.13
2023-01-20T17:40:00.576Z,12.00
2023-01-20T17:42:27.115Z,12.80
2023-01-20T17:44:53.737Z,13.00
2023-01-20T17:47:20.294Z,13.77
2023-01-20T17:49:46.852Z,14.15
2023-01-20T17:52:13.534Z,14.75
2023-01-20T17:54:40.080Z,15.15
2023-01-20T17:57:06.632Z,15.07
2023-01-20T17:59:33.176Z,17.13
2023-01-20T18:01:59.797Z,17.05
2023-01-20T18:04:26.657Z,17.83
2023-01-20T18:06:53.460Z,17.88
2023-01-20T18:09:20.006Z,19.05
2023-01-20T18:11:46.636Z,19.52
2023-01-20T18:14:13.426Z,20.05
2023-01-20T18:16:41.614Z,19.63
2023-01-20T18:19:12.265Z,19.27
2023-01-20T18:21:39.130Z,18.92
2023-01-20T18:24:10.082Z,19.55
2023-01-20T18:26:38.641Z,18.77
2023-01-20T18:29:08.713Z,20.02
2023-01-20T18:31:35.711Z,19.77
2023-01-20T18:34:05.105Z,17.23
2023-01-20T18:36:35.262Z,19.67
2023-01-20T18:39:08.009Z,19.70
2023-01-20T18:41:37.564Z,18.75
2023-01-20T18:44:05.101Z,17.98
2023-01-20T18:46:31.876Z,15.55
2023-01-20T18:48:58.518Z,17.48
2023-01-20T18:51:27.835Z,18.02
2023-01-20T18:53:57.565Z,18.42
2023-01-20T18:56:25.620Z,18.55
2023-01-20T18:58:53.313Z,18.48
2023-01-20T19:01:22.737Z,16.17
2023-01-20T19:03:50.148Z,16.98
2023-01-20T19:06:17.888Z,17.08
2023-01-20T19:08:45.687Z,17.05
2023-01-20T19:11:15.408Z,16.02
2023-01-20T19:13:43.672Z,17.50
2023-01-20T19:16:12.789Z,15.63
2023-01-20T19:18:41.168Z,16.58
2023-01-20T19:21:10.889Z,16.83
2023-01-20T19:23:38.045Z,16.23
2023-01-20T19:26:11.826Z,16.42
2023-01-20T19:28:39.398Z,15.23
2023-01-20T19:31:15.272Z,15.88
2023-01-20T19:33:42.506Z,15.43
2023-01-20T19:36:15.067Z,15.57
2023-01-20T19:38:42.839Z,15.82
2023-01-20T19:41:12.139Z,16.23
2023-01-20T19:43:39.438Z,16.17
2023-01-20T19:46:08.773Z,17.00
2023-01-20T19:48:35.507Z,17.20
2023-01-20T19:51:07.561Z,15.23
2023-01-20T19:53:34.997Z,15.68
2023-01-20T19:56:13.464Z,15.43
2023-01-20T19:58:40.707Z,15.93
2023-01-20T20:01:08.253Z,15.38
2023-01-20T20:03:35.540Z,15.70
2023-01-20T20:06:03.016Z,16.30
2023-01-20T20:08:29.559Z,15.95
2023-01-20T20:10:56.795Z,16.98
2023-01-20T20:13:23.628Z,16.85
2023-01-20T20:15:50.830Z,15.95
2023-01-20T20:18:17.415Z,16.42
2023-01-20T20:20:44.642Z,17.70
2023-01-20T20:23:11.409Z,18.55
2023-01-20T20:25:37.978Z,17.00
2023-01-20T20:28:06.188Z,17.30
2023-01-20T20:30:32.811Z,17.55
2023-01-20T20:33:01.183Z,16.88
2023-01-20T20:35:27.802Z,18.05
2023-01-20T20:37:54.358Z,17.52
2023-01-20T20:40:21.027Z,17.05
2023-01-20T20:42:48.612Z,17.35
2023-01-20T20:45:15.893Z,18.13
2023-01-20T20:47:42.440Z,17.25
2023-01-20T20:50:09.640Z,17.52
2023-01-20T20:52:36.187Z,17.70
2023-01-20T20:55:02.702Z,16.58
2023-01-20T20:57:29.246Z,17.00
2023-01-20T20:59:59.140Z,16.27
2023-01-20T21:02:26.602Z,15.50
2023-01-20T21:04:53.340Z,14.23
2023-01-20T21:07:19.898Z,13.65
2023-01-20T21:09:47.870Z,13.30
2023-01-20T21:12:14.650Z,13.57
2023-01-20T21:14:41.180Z,13.70
2023-01-20T21:17:07.852Z,13.15
2023-01-20T21:19:34.480Z,14.60
2023-01-20T21:22:01.044Z,15.40
2023-01-20T21:24:29.111Z,16.27
2023-01-20T21:26:56.231Z,15.60
2023-01-20T21:29:22.756Z,16.08
2023-01-20T21:31:50.333Z,15.57
2023-01-20T21:34:17.044Z,17.00
2023-01-20T21:36:43.659Z,15.43
2023-01-20T21:39:15.050Z,16.35
2023-01-20T21:41:41.919Z,15.93
2023-01-20T21:44:29.482Z,16.38
2023-01-20T21:47:04.744Z,16.55
2023-01-20T21:49:49.866Z,16.92
2023-01-20T21:52:37.267Z,18.27
2023-01-20T21:55:04.654Z,18.23
2023-01-20T21:57:32.810Z,17.08
2023-01-20T22:00:00.626Z,18.60
2023-01-20T22:02:29.216Z,18.17
2023-01-20T22:04:56.287Z,17.40
2023-01-20T22:07:23.718Z,19.33
2023-01-20T22:09:50.289Z,20.15
2023-01-20T22:12:17.076Z,20.20
2023-01-20T22:14:43.833Z,19.35
2023-01-20T22:17:11.797Z,18.92
2023-01-20T22:19:39.092Z,19.83
2023-01-20T22:22:06.183Z,18.20
2023-01-20T22:24:33.011Z,18.77
2023-01-20T22:26:59.962Z,16.10
2023-01-20T22:29:26.916Z,15.77
2023-01-20T22:31:55.161Z,14.48
2023-01-20T22:34:22.533Z,14.85
2023-01-20T22:36:49.121Z,13.80
2023-01-20T22:39:15.912Z,13.55
2023-01-20T22:41:42.996Z,13.10
2023-01-20T22:44:09.878Z,11.60
2023-01-20T22:46:36.588Z,10.68
2023-01-20T22:49:03.293Z,10.80
2023-01-20T22:51:30.560Z,9.90
2023-01-20T22:53:59.202Z,9.70
2023-01-20T22:56:28.265Z,9.18
2023-01-20T22:58:56.688Z,9.05
2023-01-20T23:01:26.129Z,9.52
2023-01-20T23:04:06.206Z,9.75
2023-01-20T23:06:35.223Z,9.73
2023-01-20T23:09:05.559Z,10.95
2023-01-20T23:11:33.951Z,10.02
2023-01-20T23:14:00.764Z,17.65
2023-01-20T23:16:27.752Z,16.85
2023-01-20T23:18:54.474Z,13.73
2023-01-20T23:21:21.773Z,12.45
2023-01-20T23:24:03.145Z,15.18
2023-01-20T23:26:30.562Z,14.82
2023-01-20T23:28:57.194Z,16.42
2023-01-20T23:31:25.306Z,12.32
2023-01-20T23:33:53.984Z,13.52
2023-01-20T23:36:25.598Z,12.15
2023-01-20T23:38:56.194Z,12.27
2023-01-20T23:41:23.835Z,12.05
2023-01-20T23:43:50.494Z,12.98
2023-01-20T23:46:17.125Z,12.50
2023-01-20T23:48:46.506Z,13.75
2023-01-20T23:51:13.396Z,14.18
2023-01-20T23:53:40.493Z,14.23
2023-01-20T23:56:17.765Z,14.02
2023-01-20T23:58:45.120Z,15.05
